KAOO

Altoona-Blair County Airport

Altoona, Pennsylvania, USA
METAR KAOO 151853Z AUTO 20010KT 10SM SCT036 SCT050 BKN070 07/03 A2960 RMK AO2 RAB1757E43 SLP030 P0000 T00720033
Observed Flight Rules
Feb-15 @ 18:53 UTC (17 minutes ago) Visual Flight Rules
Wind Visibility Clouds
200° at 10 knots 10 miles
  • Scattered at 3,600' AGL
  • Scattered at 5,000' AGL
  • Broken at 7,000' AGL
Temperatures Readings Precipitation
Current 7°C / 45°F
Dewpoint 3°C / 37°F
Humidity 76%
Altimeter 29.6" Hg
Pressure 1003 hPa
Elevation 455
Current Rain 0.01
METAR KAOO 151853Z AUTO 20010KT 10SM SCT036 SCT050 BKN070 07/03 A2960 RMK AO2 RAB1757E43 SLP030 P0000 T00720033
Observed Flight Rules
Feb-15 @ 18:53 UTC
(17 minutes ago)
VFR
Wind Visibility
200° at 10 knots 10 miles
Clouds
  • Scattered at 3,600' AGL
  • Scattered at 5,000' AGL
  • Broken at 7,000' AGL
Temperature Dewpoint
7°C / 45°F 3°C / 37°F
Humidity Altimeter Pressure
76% 29.6" Hg 1003 hPa
Current Rain
0.01